createdAt,value
2023-03-20T00:00:57.836Z,1.27
2023-03-20T00:01:57.887Z,1.27
2023-03-20T00:02:57.869Z,1.28
2023-03-20T00:03:57.908Z,1.26
2023-03-20T00:04:57.929Z,1.28
2023-03-20T00:08:57.926Z,1.28
2023-03-20T00:10:57.809Z,1.27
2023-03-20T00:15:57.998Z,1.30
2023-03-20T00:17:57.814Z,1.30
2023-03-20T00:23:57.825Z,1.30
2023-03-20T00:24:57.819Z,1.32
2023-03-20T00:25:57.893Z,1.30
2023-03-20T00:26:57.824Z,1.31
2023-03-20T00:27:57.827Z,1.32
2023-03-20T00:28:57.870Z,1.32
2023-03-20T00:29:57.835Z,1.32
2023-03-20T00:30:57.908Z,1.32
2023-03-20T00:31:58.356Z,1.32
2023-03-20T00:32:57.921Z,1.33
2023-03-20T00:33:57.847Z,1.33
2023-03-20T00:34:57.842Z,1.32
2023-03-20T00:35:57.870Z,1.34
2023-03-20T00:36:57.843Z,1.32
2023-03-20T00:37:57.834Z,1.33
2023-03-20T00:38:57.821Z,1.33
2023-03-20T00:39:57.820Z,1.33
2023-03-20T00:40:57.812Z,1.34
2023-03-20T00:41:57.850Z,1.33
2023-03-20T00:42:57.815Z,1.33
2023-03-20T00:43:57.816Z,1.34
2023-03-20T00:44:57.887Z,1.34
2023-03-20T00:45:57.826Z,1.34
2023-03-20T00:46:57.940Z,1.34
2023-03-20T00:47:57.820Z,1.34
2023-03-20T00:48:57.833Z,1.36
2023-03-20T00:49:57.821Z,1.34
2023-03-20T00:55:57.829Z,1.35
2023-03-20T00:56:57.808Z,1.35
2023-03-20T00:57:57.810Z,1.36
2023-03-20T00:59:57.819Z,1.36
2023-03-20T01:00:57.859Z,1.36
2023-03-20T01:01:57.874Z,1.37
2023-03-20T01:02:57.824Z,1.37
2023-03-20T01:03:57.852Z,1.37
2023-03-20T01:04:57.857Z,1.37
2023-03-20T01:05:57.886Z,1.38
2023-03-20T01:06:57.885Z,1.38
2023-03-20T01:07:57.861Z,1.38
2023-03-20T01:08:57.894Z,1.37
2023-03-20T01:09:57.892Z,1.38
2023-03-20T01:10:57.888Z,1.39
2023-03-20T01:11:57.901Z,1.38
2023-03-20T01:12:57.901Z,1.39
2023-03-20T01:13:57.925Z,1.39
2023-03-20T01:14:57.904Z,1.39
2023-03-20T01:15:57.927Z,1.39
2023-03-20T01:16:57.945Z,1.40
2023-03-20T01:17:57.937Z,1.39
2023-03-20T01:18:57.939Z,1.40
2023-03-20T01:19:57.949Z,1.40
2023-03-20T01:20:57.965Z,1.40
2023-03-20T01:21:57.987Z,1.41
2023-03-20T01:22:57.955Z,1.41
2023-03-20T01:23:57.967Z,1.43
2023-03-20T01:24:58.008Z,1.42
2023-03-20T01:25:57.992Z,1.42
2023-03-20T01:26:57.997Z,1.42
2023-03-20T01:27:58.024Z,1.43
2023-03-20T01:28:58.016Z,1.41
2023-03-20T01:29:58.000Z,1.43
2023-03-20T01:30:58.009Z,1.43
2023-03-20T01:31:58.058Z,1.44
2023-03-20T01:32:58.165Z,1.46
2023-03-20T01:33:58.028Z,1.43
2023-03-20T01:34:58.038Z,1.43
2023-03-20T01:35:58.121Z,1.44
2023-03-20T01:36:58.049Z,1.42
2023-03-20T01:37:58.039Z,1.43
2023-03-20T01:38:58.060Z,1.46
2023-03-20T01:39:58.068Z,1.43
2023-03-20T01:40:58.073Z,1.46
2023-03-20T01:41:58.076Z,1.44
2023-03-20T01:42:58.068Z,1.44
2023-03-20T01:43:58.081Z,1.45
2023-03-20T01:44:58.077Z,1.45
2023-03-20T01:45:58.134Z,1.46
2023-03-20T01:46:58.102Z,1.44
2023-03-20T01:47:58.073Z,1.46
2023-03-20T01:48:58.094Z,1.46
2023-03-20T01:49:58.089Z,1.46
2023-03-20T01:50:58.082Z,1.47
2023-03-20T01:51:58.110Z,1.47
2023-03-20T01:52:58.059Z,1.46
2023-03-20T01:53:58.071Z,1.48
2023-03-20T01:54:58.080Z,1.47
2023-03-20T01:55:58.074Z,1.46
2023-03-20T01:56:58.130Z,1.47
2023-03-20T01:57:58.153Z,1.48
2023-03-20T01:58:58.119Z,1.45
2023-03-20T01:59:58.152Z,1.48
2023-03-20T02:00:58.163Z,1.46
2023-03-20T02:01:58.201Z,1.46
2023-03-20T02:02:58.187Z,1.47
2023-03-20T02:03:58.287Z,1.46
2023-03-20T02:04:58.306Z,1.49
2023-03-20T02:05:58.226Z,1.47
2023-03-20T02:06:58.231Z,1.46
2023-03-20T02:07:58.267Z,1.47
2023-03-20T02:08:58.263Z,1.48
2023-03-20T02:09:58.267Z,1.49
2023-03-20T02:10:58.263Z,1.48
2023-03-20T02:11:58.273Z,1.48
2023-03-20T02:12:58.267Z,1.48
2023-03-20T02:13:58.269Z,1.48
2023-03-20T02:14:58.287Z,1.48
2023-03-20T02:15:58.309Z,1.51
2023-03-20T02:16:58.365Z,1.50
2023-03-20T02:17:58.308Z,1.50
2023-03-20T02:18:58.307Z,1.49
2023-03-20T02:19:58.313Z,1.50
2023-03-20T02:20:58.311Z,1.50
2023-03-20T02:21:58.315Z,1.51
2023-03-20T02:22:58.438Z,1.51
2023-03-20T02:23:58.335Z,1.49
2023-03-20T02:24:58.359Z,1.51
2023-03-20T02:25:58.351Z,1.50
2023-03-20T02:26:58.355Z,1.52
2023-03-20T02:27:58.436Z,1.50
2023-03-20T02:28:58.359Z,1.52
2023-03-20T02:29:58.363Z,1.51
2023-03-20T02:30:58.396Z,1.52
2023-03-20T02:31:58.431Z,1.52
2023-03-20T02:32:58.425Z,1.51
2023-03-20T02:33:58.375Z,1.50
2023-03-20T02:34:58.369Z,1.51
2023-03-20T02:35:58.422Z,1.53
2023-03-20T02:36:58.389Z,1.51
2023-03-20T02:37:58.400Z,1.53
2023-03-20T02:38:58.401Z,1.53
2023-03-20T02:39:58.438Z,1.51
2023-03-20T02:40:58.457Z,1.52
2023-03-20T02:41:58.415Z,1.53
2023-03-20T02:42:58.414Z,1.52
2023-03-20T02:43:58.437Z,1.53
2023-03-20T02:44:58.419Z,1.52
2023-03-20T02:45:58.428Z,1.55
2023-03-20T02:46:58.453Z,1.55
2023-03-20T02:47:58.455Z,1.52
2023-03-20T02:48:58.445Z,1.55
2023-03-20T02:49:58.503Z,1.53
2023-03-20T02:50:58.476Z,1.56
2023-03-20T02:51:58.471Z,1.55
2023-03-20T02:52:58.473Z,1.55
2023-03-20T02:53:58.469Z,1.54
2023-03-20T02:54:58.466Z,1.53
2023-03-20T02:55:58.470Z,1.55
2023-03-20T02:56:58.471Z,1.54
2023-03-20T02:57:58.494Z,1.53
2023-03-20T02:58:58.507Z,1.54
2023-03-20T02:59:58.503Z,1.55
2023-03-20T03:00:58.492Z,1.55
2023-03-20T03:01:58.496Z,1.54
2023-03-20T03:02:58.519Z,1.54
2023-03-20T03:03:58.483Z,1.55
2023-03-20T03:04:58.486Z,1.55
2023-03-20T03:05:58.487Z,1.55
2023-03-20T03:06:58.491Z,1.55
2023-03-20T03:07:58.555Z,1.56
2023-03-20T03:08:59.425Z,1.56
2023-03-20T03:09:58.494Z,1.55
2023-03-20T03:10:58.494Z,1.55
2023-03-20T03:11:58.510Z,1.58
2023-03-20T03:12:58.507Z,1.55
2023-03-20T03:13:58.500Z,1.57
2023-03-20T03:14:58.503Z,1.56
2023-03-20T03:15:58.523Z,1.56
2023-03-20T03:16:59.424Z,1.56
2023-03-20T03:17:58.954Z,1.56
2023-03-20T03:18:58.510Z,1.56
2023-03-20T03:19:58.528Z,1.56
2023-03-20T03:20:58.541Z,1.55
2023-03-20T03:21:58.549Z,1.56
2023-03-20T03:22:58.582Z,1.56
2023-03-20T03:23:58.543Z,1.56
2023-03-20T03:24:58.549Z,1.55
2023-03-20T03:25:58.552Z,1.55
2023-03-20T03:26:58.554Z,1.56
2023-03-20T03:27:58.561Z,1.56
2023-03-20T03:28:58.560Z,1.55
2023-03-20T03:29:58.557Z,1.55
2023-03-20T03:30:58.641Z,1.57
2023-03-20T03:31:58.567Z,1.56
2023-03-20T03:32:58.653Z,1.55
2023-03-20T03:33:58.565Z,1.58
2023-03-20T03:34:58.600Z,1.56
2023-03-20T03:35:58.578Z,1.57
2023-03-20T03:36:58.573Z,1.55
2023-03-20T03:37:58.574Z,1.57
2023-03-20T03:38:58.579Z,1.57
2023-03-20T03:39:58.572Z,1.54
2023-03-20T03:40:58.587Z,1.57
2023-03-20T03:41:58.584Z,1.55
2023-03-20T03:42:58.587Z,1.56
2023-03-20T03:43:58.652Z,1.55
2023-03-20T03:44:58.587Z,1.57
2023-03-20T03:45:58.582Z,1.57
2023-03-20T03:46:58.628Z,1.57
2023-03-20T03:47:58.580Z,1.58
2023-03-20T03:48:58.609Z,1.58
2023-03-20T03:49:58.589Z,1.59
2023-03-20T03:50:58.589Z,1.58
2023-03-20T03:51:58.621Z,1.58
2023-03-20T03:52:58.622Z,1.58
2023-03-20T03:53:58.626Z,1.58
2023-03-20T03:54:58.586Z,1.57
2023-03-20T03:55:58.653Z,1.58
2023-03-20T03:56:58.587Z,1.61
2023-03-20T03:57:58.600Z,1.61
2023-03-20T03:58:58.606Z,1.61
2023-03-20T03:59:58.587Z,1.59
2023-03-20T04:00:58.594Z,1.57
2023-03-20T04:01:58.704Z,1.60
2023-03-20T04:02:58.608Z,1.57
2023-03-20T04:03:58.597Z,1.61
2023-03-20T04:04:58.691Z,1.58
2023-03-20T04:05:58.587Z,1.58
2023-03-20T04:06:58.585Z,1.58
2023-03-20T04:07:58.590Z,1.57
2023-03-20T04:08:58.609Z,1.59
2023-03-20T04:09:58.574Z,1.57
2023-03-20T04:10:58.658Z,1.60
2023-03-20T04:11:58.573Z,1.58
2023-03-20T04:12:58.584Z,1.57
2023-03-20T04:13:58.590Z,1.58
2023-03-20T04:14:58.896Z,1.58
2023-03-20T04:15:58.615Z,1.58
2023-03-20T04:16:58.573Z,1.59
2023-03-20T04:17:58.584Z,1.59
2023-03-20T04:18:58.610Z,1.59
2023-03-20T04:19:58.579Z,1.59
2023-03-20T04:20:58.586Z,1.59
2023-03-20T04:21:58.572Z,1.61
2023-03-20T04:22:58.591Z,1.58
2023-03-20T04:23:58.593Z,1.60
2023-03-20T04:24:58.594Z,1.59
2023-03-20T04:25:58.597Z,1.59
2023-03-20T04:26:58.594Z,1.61
2023-03-20T04:27:58.588Z,1.58
2023-03-20T04:28:58.645Z,1.57
2023-03-20T04:29:58.610Z,1.60
2023-03-20T04:30:58.594Z,1.60
2023-03-20T04:31:58.591Z,1.60
2023-03-20T04:32:58.674Z,1.60
2023-03-20T04:34:58.601Z,1.60
2023-03-20T04:35:58.672Z,1.60
2023-03-20T06:42:05.786Z,1.69
2023-03-20T06:43:05.769Z,1.74
2023-03-20T06:44:05.953Z,1.76
2023-03-20T06:45:05.959Z,1.79
2023-03-20T06:46:05.974Z,1.79
2023-03-20T06:47:06.261Z,1.81
2023-03-20T06:48:05.893Z,1.86
2023-03-20T06:49:05.926Z,2.00
2023-03-20T06:50:05.929Z,3.01
2023-03-20T06:51:05.937Z,3.51
2023-03-20T06:52:05.890Z,3.58
2023-03-20T06:53:05.876Z,1.09
2023-03-20T06:54:05.912Z,0.43
2023-03-20T06:55:05.919Z,0.34
2023-03-20T06:56:05.966Z,0.34
2023-03-20T06:57:05.927Z,0.34
2023-03-20T06:58:05.986Z,0.34
2023-03-20T06:59:05.981Z,0.34
2023-03-20T07:01:06.040Z,0.34
2023-03-20T07:02:06.150Z,0.34
2023-03-20T07:03:06.099Z,0.34
2023-03-20T07:04:06.125Z,0.34
2023-03-20T07:05:06.189Z,0.34
2023-03-20T07:06:07.029Z,0.46
2023-03-20T07:07:06.220Z,0.63
2023-03-20T07:08:06.246Z,0.91
2023-03-20T07:09:06.260Z,1.18
2023-03-20T07:10:06.243Z,1.62
2023-03-20T07:11:06.295Z,1.94
2023-03-20T07:12:06.269Z,2.18
2023-03-20T07:13:06.298Z,2.52
2023-03-20T07:14:06.322Z,2.79
2023-03-20T07:15:06.328Z,3.20
2023-03-20T07:16:06.341Z,3.76
2023-03-20T07:17:06.326Z,4.33
2023-03-20T07:18:06.350Z,4.89
2023-03-20T07:19:06.363Z,5.76
2023-03-20T07:20:06.371Z,6.60
2023-03-20T07:21:06.568Z,7.64
2023-03-20T07:22:06.352Z,8.84
2023-03-20T07:23:06.347Z,9.85
2023-03-20T07:24:06.340Z,11.47
2023-03-20T07:25:06.372Z,13.01
2023-03-20T07:26:06.384Z,13.07
2023-03-20T07:27:06.393Z,13.53
2023-03-20T07:28:06.358Z,14.74
2023-03-20T07:29:06.363Z,17.16
2023-03-20T07:30:06.396Z,22.48
2023-03-20T07:31:06.405Z,13.32
2023-03-20T07:32:06.335Z,14.92
2023-03-20T07:33:06.483Z,18.01
2023-03-20T07:34:06.327Z,24.68
2023-03-20T07:35:06.346Z,40.35
2023-03-20T07:36:06.468Z,43.49
2023-03-20T07:37:06.306Z,43.58
2023-03-20T07:38:06.305Z,44.13
2023-03-20T07:39:06.340Z,45.41
2023-03-20T07:40:06.309Z,14.86
2023-03-20T07:41:06.338Z,9.87
2023-03-20T07:42:06.319Z,12.91
2023-03-20T07:43:06.324Z,15.51
2023-03-20T07:44:06.317Z,15.78
2023-03-20T07:45:07.454Z,16.99
2023-03-20T07:46:06.529Z,19.15
2023-03-20T07:47:06.348Z,24.01
2023-03-20T07:48:06.423Z,30.80
2023-03-20T07:49:06.406Z,32.43
2023-03-20T07:50:08.228Z,35.02
2023-03-20T07:51:06.382Z,37.00
2023-03-20T07:52:06.349Z,38.66
2023-03-20T07:53:06.387Z,38.76
2023-03-20T07:54:06.353Z,39.42
2023-03-20T07:55:06.333Z,41.48
2023-03-20T07:56:06.369Z,45.44
2023-03-20T07:57:06.332Z,51.42
2023-03-20T07:58:06.364Z,55.87
2023-03-20T07:59:06.320Z,59.00
2023-03-20T08:00:06.699Z,59.64
2023-03-20T08:01:06.389Z,62.96
2023-03-20T08:02:06.331Z,65.42
2023-03-20T08:03:06.413Z,67.42
2023-03-20T08:04:06.440Z,68.81
2023-03-20T08:05:07.052Z,69.31
2023-03-20T08:06:06.248Z,71.12
2023-03-20T08:07:06.275Z,71.89
2023-03-20T08:08:06.270Z,73.09
2023-03-20T08:09:06.215Z,75.49
2023-03-20T08:10:06.224Z,74.16
2023-03-20T08:11:06.238Z,76.36
2023-03-20T08:12:06.205Z,75.86
2023-03-20T08:13:06.187Z,74.29
2023-03-20T08:14:06.192Z,76.56
2023-03-20T08:15:06.162Z,75.72
2023-03-20T08:16:06.219Z,76.11
2023-03-20T08:17:15.034Z,77.89
2023-03-20T08:19:06.152Z,78.05
2023-03-20T08:20:06.105Z,78.11
2023-03-20T08:21:06.119Z,82.03
2023-03-20T08:22:06.096Z,118.19
2023-03-20T08:23:06.106Z,158.66
2023-03-20T08:24:08.080Z,168.57
2023-03-20T08:25:06.099Z,177.91
2023-03-20T08:26:06.084Z,182.87
2023-03-20T08:27:06.044Z,186.16
2023-03-20T08:28:06.001Z,191.07
2023-03-20T08:29:06.038Z,189.32
2023-03-20T08:30:05.998Z,193.44
2023-03-20T08:31:06.051Z,190.61
2023-03-20T08:32:05.976Z,186.23
2023-03-20T08:33:05.970Z,184.45
2023-03-20T08:34:05.950Z,186.59
2023-03-20T08:35:05.927Z,183.53
2023-03-20T08:36:06.010Z,182.52
2023-03-20T08:37:05.912Z,186.19
2023-03-20T08:38:05.877Z,183.53
2023-03-20T08:39:05.864Z,134.33
2023-03-20T08:40:05.886Z,97.29
2023-03-20T08:41:05.828Z,69.95
2023-03-20T08:42:06.106Z,29.38
2023-03-20T08:43:05.798Z,9.14
2023-03-20T08:44:05.851Z,5.16
2023-03-20T08:45:05.838Z,3.43
2023-03-20T08:46:05.922Z,1.83
2023-03-20T08:47:05.898Z,1.19
2023-03-20T08:48:05.939Z,0.84
2023-03-20T08:49:05.979Z,0.76
2023-03-20T08:50:05.987Z,0.79
2023-03-20T08:51:06.014Z,0.67
2023-03-20T08:52:06.092Z,0.42
2023-03-20T08:53:06.165Z,0.34
2023-03-20T08:54:06.148Z,0.36
2023-03-20T08:55:06.293Z,0.34
2023-03-20T08:56:06.381Z,0.34
2023-03-20T08:57:06.263Z,0.34
2023-03-20T08:58:06.300Z,0.34
2023-03-20T08:59:06.347Z,0.34
2023-03-20T09:00:06.382Z,0.35
2023-03-20T09:01:06.542Z,0.34
2023-03-20T09:02:06.568Z,0.34
2023-03-20T09:03:06.646Z,0.34
2023-03-20T09:04:06.526Z,0.42
2023-03-20T09:05:06.565Z,0.50
2023-03-20T09:06:06.612Z,0.41
2023-03-20T09:07:06.649Z,0.61
2023-03-20T09:08:06.692Z,0.70
2023-03-20T09:09:06.728Z,0.52
2023-03-20T09:10:06.796Z,0.58
2023-03-20T09:11:06.811Z,0.74
2023-03-20T09:12:06.881Z,1.11
2023-03-20T09:14:06.925Z,1.14
2023-03-20T09:27:07.344Z,0.50
2023-03-20T09:37:08.064Z,3.69
2023-03-20T09:38:07.825Z,3.38
2023-03-20T09:39:07.852Z,3.08
2023-03-20T09:40:08.012Z,2.57
2023-03-20T09:41:07.961Z,1.92
2023-03-20T09:42:08.056Z,1.92
2023-03-20T09:43:08.027Z,1.55
2023-03-20T09:44:08.084Z,3.44
2023-03-20T09:45:08.162Z,4.74
2023-03-20T09:46:08.227Z,4.64
2023-03-20T09:47:19.313Z,3.72
2023-03-20T09:48:09.233Z,3.63
2023-03-20T09:49:08.340Z,3.30
2023-03-20T09:50:08.310Z,3.73
2023-03-20T09:51:08.323Z,3.38
2023-03-20T09:52:08.371Z,3.70
2023-03-20T09:53:08.377Z,2.55
2023-03-20T09:54:08.419Z,1.38
2023-03-20T09:55:08.487Z,1.06
2023-03-20T09:56:08.479Z,1.06
2023-03-20T09:57:08.540Z,1.23
2023-03-20T09:58:08.584Z,1.08
2023-03-20T09:59:08.652Z,0.99
2023-03-20T10:00:08.739Z,0.92
2023-03-20T10:01:08.745Z,1.16
2023-03-20T10:02:08.933Z,1.18
2023-03-20T10:03:08.866Z,1.54
2023-03-20T10:04:08.993Z,1.38
2023-03-20T10:05:08.990Z,1.42
2023-03-20T10:06:09.020Z,1.07
2023-03-20T10:07:09.084Z,2.05
2023-03-20T10:08:09.158Z,1.62
2023-03-20T10:09:09.182Z,2.97
2023-03-20T10:10:09.350Z,2.99
2023-03-20T10:11:09.308Z,3.15
2023-03-20T10:12:09.324Z,3.59
2023-03-20T10:13:09.406Z,4.31
2023-03-20T10:14:09.524Z,6.44
2023-03-20T10:15:09.449Z,6.23
2023-03-20T10:16:09.456Z,7.16
2023-03-20T10:57:09.848Z,26.13
2023-03-20T10:58:09.899Z,26.29
2023-03-20T10:59:09.850Z,25.80
2023-03-20T11:00:10.099Z,26.18
2023-03-20T11:01:09.880Z,26.27
2023-03-20T11:02:09.833Z,26.35
2023-03-20T11:03:09.988Z,24.48
2023-03-20T11:04:09.887Z,21.42
2023-03-20T11:05:09.794Z,25.81
2023-03-20T11:06:10.592Z,26.84
2023-03-20T11:07:09.757Z,24.54
2023-03-20T11:08:09.760Z,26.14
2023-03-20T11:09:09.732Z,28.46
2023-03-20T11:10:09.707Z,31.49
2023-03-20T11:11:09.733Z,31.65
2023-03-20T11:12:09.677Z,34.59
2023-03-20T11:13:09.706Z,36.88
2023-03-20T11:14:09.649Z,40.78
2023-03-20T11:15:09.678Z,35.92
2023-03-20T11:16:09.807Z,33.24
2023-03-20T11:17:09.758Z,35.21
2023-03-20T11:18:11.316Z,32.47
2023-03-20T11:19:09.844Z,30.35
2023-03-20T11:20:09.759Z,29.91
2023-03-20T11:21:09.760Z,24.61
2023-03-20T11:22:09.732Z,24.69
2023-03-20T11:23:09.730Z,23.67
2023-03-20T11:24:11.637Z,22.31
2023-03-20T11:25:09.663Z,24.63
2023-03-20T11:26:09.681Z,23.59
2023-03-20T11:32:55.490Z,0.50
2023-03-20T11:33:34.585Z,0.50
2023-03-20T11:34:34.505Z,0.50
2023-03-20T11:35:34.504Z,0.50
2023-03-20T11:36:34.518Z,0.50
2023-03-20T11:37:34.625Z,0.50
2023-03-20T11:38:34.353Z,0.53
2023-03-20T11:39:34.345Z,0.55
2023-03-20T11:40:34.493Z,0.61
2023-03-20T11:41:34.313Z,0.62
2023-03-20T11:42:36.263Z,0.66
2023-03-20T11:43:34.258Z,0.66
2023-03-20T11:44:35.118Z,0.67
2023-03-20T11:45:34.286Z,0.64
2023-03-20T11:46:34.290Z,0.60
2023-03-20T11:47:34.205Z,0.58
2023-03-20T11:48:34.172Z,0.55
2023-03-20T11:49:34.124Z,0.54
2023-03-20T11:50:34.428Z,0.52
2023-03-20T11:51:34.184Z,0.52
2023-03-20T11:52:34.069Z,0.56
2023-03-20T11:53:34.026Z,0.60
2023-03-20T11:54:34.034Z,0.64
2023-03-20T11:55:33.995Z,0.63
2023-03-20T11:56:33.959Z,0.65
2023-03-20T11:57:33.931Z,0.71
2023-03-20T11:58:33.936Z,0.78
2023-03-20T11:59:33.971Z,0.77
2023-03-20T12:00:34.519Z,0.81
2023-03-20T12:01:33.846Z,0.76
2023-03-20T12:02:33.890Z,0.82
2023-03-20T12:03:33.908Z,0.80
2023-03-20T12:04:33.770Z,0.81
2023-03-20T12:05:33.769Z,0.89
2023-03-20T12:06:33.707Z,0.91
2023-03-20T12:07:33.708Z,0.98
2023-03-20T12:08:33.688Z,0.94
2023-03-20T12:09:33.659Z,0.97
2023-03-20T12:10:33.993Z,0.91
2023-03-20T12:11:33.586Z,0.90
2023-03-20T12:12:33.577Z,1.01
2023-03-20T12:13:33.541Z,1.11
2023-03-20T12:14:33.522Z,1.19
2023-03-20T12:15:33.583Z,1.18
2023-03-20T12:16:33.464Z,1.10
2023-03-20T12:17:33.420Z,1.06
2023-03-20T12:18:33.426Z,0.99
2023-03-20T12:19:33.353Z,0.95
2023-03-20T12:20:33.536Z,1.04
2023-03-20T12:21:33.314Z,1.10
2023-03-20T12:22:33.266Z,1.20
2023-03-20T12:23:33.269Z,1.37
2023-03-20T12:24:33.204Z,1.45
2023-03-20T12:25:33.176Z,1.46
2023-03-20T12:26:33.142Z,1.49
2023-03-20T12:27:34.777Z,1.31
2023-03-20T12:28:33.200Z,1.35
2023-03-20T12:29:33.151Z,1.44
2023-03-20T12:30:33.098Z,1.45
2023-03-20T12:31:33.086Z,1.50
2023-03-20T12:32:33.022Z,1.51
2023-03-20T12:33:33.026Z,1.61
2023-03-20T12:34:33.097Z,1.59
2023-03-20T12:35:32.907Z,1.53
2023-03-20T12:36:32.850Z,1.52
2023-03-20T12:37:32.815Z,1.49
2023-03-20T12:38:32.790Z,1.49
2023-03-20T12:39:32.817Z,1.49
2023-03-20T12:40:32.741Z,1.46
2023-03-20T12:41:32.737Z,1.44
2023-03-20T12:42:32.684Z,1.43
2023-03-20T12:43:32.672Z,1.43
2023-03-20T12:44:32.621Z,1.44
2023-03-20T12:45:32.625Z,1.36
2023-03-20T12:46:32.616Z,1.37
2023-03-20T12:47:32.556Z,1.37
2023-03-20T12:48:32.590Z,1.35
2023-03-20T12:49:32.623Z,1.32
2023-03-20T12:50:32.526Z,1.29
2023-03-20T12:51:32.459Z,1.28
2023-03-20T12:52:32.426Z,1.28
2023-03-20T12:53:32.396Z,1.28
2023-03-20T12:54:32.364Z,1.26
2023-03-20T12:55:32.413Z,1.25
2023-03-20T12:56:32.320Z,1.23
2023-03-20T12:57:32.282Z,1.25
2023-03-20T12:58:32.341Z,1.23
2023-03-20T12:59:32.207Z,1.22
2023-03-20T13:00:32.198Z,1.21
2023-03-20T13:01:32.170Z,1.24
2023-03-20T13:02:32.126Z,1.20
2023-03-20T13:03:32.082Z,1.23
2023-03-20T13:04:32.059Z,1.21
2023-03-20T13:05:32.040Z,1.22
2023-03-20T13:06:32.723Z,1.24
2023-03-20T13:07:31.980Z,1.23
2023-03-20T13:08:31.967Z,1.22
2023-03-20T13:09:31.937Z,1.22
2023-03-20T13:10:31.900Z,1.23
2023-03-20T13:11:31.901Z,1.24
2023-03-20T13:12:31.858Z,1.24
2023-03-20T13:13:31.825Z,1.23
2023-03-20T13:14:31.813Z,1.23
2023-03-20T13:15:31.778Z,1.19
2023-03-20T13:16:31.772Z,1.23
2023-03-20T13:17:31.721Z,1.21
2023-03-20T13:18:31.832Z,1.21
2023-03-20T13:19:31.649Z,1.18
2023-03-20T13:20:32.231Z,1.18
2023-03-20T13:21:31.582Z,1.20
2023-03-20T13:22:31.548Z,1.20
2023-03-20T13:23:31.579Z,1.17
2023-03-20T13:24:31.513Z,1.18
2023-03-20T13:25:31.495Z,1.17
2023-03-20T13:26:31.532Z,1.14
2023-03-20T13:27:31.476Z,1.14
2023-03-20T13:28:31.394Z,1.14
2023-03-20T13:29:31.350Z,1.16
2023-03-20T13:30:31.373Z,1.13
2023-03-20T13:31:31.778Z,1.13
2023-03-20T13:32:31.254Z,1.14
2023-03-20T13:33:31.253Z,1.11
2023-03-20T13:34:31.188Z,1.11
2023-03-20T13:35:31.272Z,1.11
2023-03-20T13:36:31.328Z,1.11
2023-03-20T13:37:31.122Z,1.11
2023-03-20T13:38:31.095Z,1.11
2023-03-20T13:39:31.076Z,1.11
2023-03-20T13:40:31.028Z,1.09
2023-03-20T13:41:30.999Z,1.08
2023-03-20T13:42:31.003Z,1.10
2023-03-20T13:43:30.976Z,1.08
2023-03-20T13:44:30.926Z,1.07
2023-03-20T13:45:32.145Z,1.05
2023-03-20T13:46:30.929Z,1.06
2023-03-20T13:47:30.857Z,1.06
2023-03-20T13:48:30.816Z,1.05
2023-03-20T13:49:30.771Z,1.04
2023-03-20T13:50:30.764Z,1.06
2023-03-20T13:51:30.777Z,1.04
2023-03-20T13:52:30.741Z,1.03
2023-03-20T13:53:30.687Z,1.03
2023-03-20T13:54:30.675Z,1.02
2023-03-20T13:55:30.655Z,1.01
2023-03-20T13:56:30.615Z,0.99
2023-03-20T13:57:30.577Z,1.00
2023-03-20T13:58:30.548Z,0.99
2023-03-20T13:59:30.545Z,1.00
2023-03-20T14:00:30.511Z,0.97
2023-03-20T14:01:30.512Z,0.99
2023-03-20T14:02:30.454Z,0.97
2023-03-20T14:03:30.536Z,0.99
2023-03-20T14:04:30.396Z,0.96
2023-03-20T14:05:30.368Z,0.97
2023-03-20T14:06:30.360Z,0.95
2023-03-20T14:07:30.307Z,0.94
2023-03-20T14:08:30.318Z,0.94
2023-03-20T14:09:30.257Z,0.94
2023-03-20T14:10:30.254Z,0.92
2023-03-20T14:11:30.222Z,0.93
2023-03-20T14:12:30.207Z,0.93
2023-03-20T14:13:30.199Z,0.92
2023-03-20T14:14:30.249Z,0.91
2023-03-20T14:15:30.128Z,0.91
2023-03-20T14:16:30.746Z,0.91
2023-03-20T14:17:30.136Z,0.90
2023-03-20T14:18:30.071Z,0.89
2023-03-20T14:19:30.056Z,0.89
2023-03-20T14:20:30.113Z,0.88
2023-03-20T14:21:30.019Z,0.88
2023-03-20T14:22:29.972Z,0.88
2023-03-20T14:23:29.933Z,0.88
2023-03-20T14:24:29.927Z,0.88
2023-03-20T14:25:29.872Z,0.87
2023-03-20T14:26:29.849Z,0.88
2023-03-20T14:27:43.251Z,0.88
2023-03-20T14:28:30.815Z,0.88
2023-03-20T14:29:29.751Z,0.88
2023-03-20T14:30:29.775Z,0.87
2023-03-20T14:31:29.686Z,0.86
2023-03-20T14:32:29.668Z,0.86
2023-03-20T14:33:29.627Z,0.88
2023-03-20T14:34:29.586Z,0.88
2023-03-20T14:35:29.651Z,0.86
2023-03-20T14:36:29.533Z,0.87
2023-03-20T14:37:29.592Z,0.86
2023-03-20T14:38:29.464Z,0.84
2023-03-20T14:39:29.436Z,0.85
2023-03-20T14:40:29.399Z,0.86
2023-03-20T14:41:29.381Z,0.83
2023-03-20T14:42:29.394Z,0.83
2023-03-20T14:43:29.305Z,0.84
2023-03-20T14:44:29.324Z,0.83
2023-03-20T14:45:29.256Z,0.84
2023-03-20T14:46:29.233Z,0.82
2023-03-20T14:47:29.225Z,0.82
2023-03-20T14:48:29.172Z,0.82
2023-03-20T14:49:29.153Z,0.81
2023-03-20T14:50:29.104Z,0.81
2023-03-20T14:51:29.093Z,0.81
2023-03-20T14:52:29.109Z,0.83
2023-03-20T14:53:29.050Z,0.82
2023-03-20T14:54:29.047Z,0.80
2023-03-20T14:55:29.314Z,0.80
2023-03-20T14:56:28.945Z,0.80
2023-03-20T14:57:28.912Z,0.80
2023-03-20T14:58:28.877Z,0.80
2023-03-20T14:59:28.839Z,0.80
2023-03-20T15:00:28.839Z,0.81
2023-03-20T15:01:28.864Z,0.81
2023-03-20T15:02:28.996Z,0.81
2023-03-20T15:03:28.749Z,0.80
2023-03-20T15:04:28.720Z,0.81
2023-03-20T15:05:28.702Z,0.80
2023-03-20T15:06:28.657Z,0.80
2023-03-20T15:07:28.675Z,0.79
2023-03-20T15:08:28.629Z,0.78
2023-03-20T15:09:28.588Z,0.78
2023-03-20T15:10:28.660Z,0.78
2023-03-20T15:11:28.527Z,0.77
2023-03-20T15:12:28.601Z,0.79
2023-03-20T15:13:28.851Z,0.79
2023-03-20T15:14:28.426Z,0.79
2023-03-20T15:15:28.415Z,0.77
2023-03-20T15:16:28.382Z,0.80
2023-03-20T15:17:28.330Z,0.78
2023-03-20T15:18:28.365Z,0.77
2023-03-20T15:19:28.341Z,0.77
2023-03-20T15:20:28.302Z,0.78
2023-03-20T15:21:28.266Z,0.78
2023-03-20T15:22:28.271Z,0.78
2023-03-20T15:23:28.210Z,0.77
2023-03-20T15:24:28.163Z,0.77
2023-03-20T15:25:28.135Z,0.77
2023-03-20T15:26:28.140Z,0.77
2023-03-20T15:27:28.297Z,0.76
2023-03-20T15:28:28.092Z,0.77
2023-03-20T15:29:28.012Z,0.74
2023-03-20T15:30:27.991Z,0.75
2023-03-20T15:31:28.014Z,0.76
2023-03-20T15:32:27.949Z,0.75
2023-03-20T15:33:27.944Z,0.75
2023-03-20T15:34:27.905Z,0.76
2023-03-20T15:35:27.865Z,0.76
2023-03-20T15:36:27.857Z,0.74
2023-03-20T15:37:27.812Z,0.75
2023-03-20T15:38:27.816Z,0.74
2023-03-20T15:39:27.783Z,0.73
2023-03-20T15:40:34.414Z,0.74
2023-03-20T15:41:28.748Z,0.74
2023-03-20T15:42:27.768Z,0.74
2023-03-20T15:43:27.667Z,0.74
2023-03-20T15:44:27.722Z,0.74
2023-03-20T15:45:27.624Z,0.74
2023-03-20T15:46:27.573Z,0.74
2023-03-20T15:47:27.565Z,0.74
2023-03-20T15:48:27.554Z,0.74
2023-03-20T15:49:27.493Z,0.74
2023-03-20T15:50:27.479Z,0.73
2023-03-20T15:51:27.483Z,0.73
2023-03-20T15:52:27.461Z,0.72
2023-03-20T15:53:27.432Z,0.73
2023-03-20T15:54:27.470Z,0.73
2023-03-20T15:55:27.333Z,0.72
2023-03-20T15:56:27.426Z,0.72
2023-03-20T15:57:27.308Z,0.71
2023-03-20T15:58:27.274Z,0.72
2023-03-20T15:59:27.245Z,0.73
2023-03-20T16:00:27.210Z,0.71
2023-03-20T16:01:27.200Z,0.72
2023-03-20T16:02:27.145Z,0.72
2023-03-20T16:03:27.112Z,0.71
2023-03-20T16:04:27.075Z,0.71
2023-03-20T16:05:27.056Z,0.70
2023-03-20T16:06:27.032Z,0.71
2023-03-20T16:07:27.001Z,0.71
2023-03-20T16:08:27.011Z,0.71
2023-03-20T16:09:26.983Z,0.72
2023-03-20T16:10:26.944Z,0.70
2023-03-20T16:11:26.880Z,0.72
2023-03-20T16:12:26.851Z,0.71
2023-03-20T16:13:26.831Z,0.70
2023-03-20T16:14:26.822Z,0.72
2023-03-20T16:15:26.760Z,0.69
2023-03-20T16:16:26.822Z,0.70
2023-03-20T16:17:26.718Z,0.69
2023-03-20T16:18:26.686Z,0.69
2023-03-20T16:19:26.654Z,0.69
2023-03-20T16:20:26.663Z,0.69
2023-03-20T16:21:26.605Z,0.69
2023-03-20T16:22:26.594Z,0.69
2023-03-20T16:23:26.546Z,0.70
2023-03-20T16:24:26.527Z,0.69
2023-03-20T16:25:26.720Z,0.69
2023-03-20T16:26:26.502Z,0.68
2023-03-20T16:27:26.728Z,0.69
2023-03-20T16:28:26.431Z,0.68
2023-03-20T16:29:26.406Z,0.69
2023-03-20T16:30:26.419Z,0.69
2023-03-20T16:31:26.374Z,0.69
2023-03-20T16:32:26.304Z,0.68
2023-03-20T16:33:26.271Z,0.68
2023-03-20T16:34:26.283Z,0.67
2023-03-20T16:35:26.228Z,0.69
2023-03-20T16:36:26.194Z,0.68
2023-03-20T16:37:26.164Z,0.68
2023-03-20T16:38:26.147Z,0.67
2023-03-20T16:39:26.124Z,0.67
2023-03-20T16:40:27.027Z,0.68
2023-03-20T16:41:26.039Z,0.66
2023-03-20T16:42:26.013Z,0.67
2023-03-20T16:43:26.057Z,0.68
2023-03-20T16:44:25.977Z,0.67
2023-03-20T16:45:25.947Z,0.67
2023-03-20T16:46:25.924Z,0.68
2023-03-20T16:47:25.886Z,0.66
2023-03-20T16:48:25.868Z,0.67
2023-03-20T16:49:25.848Z,0.67
2023-03-20T16:50:25.821Z,0.66